aviador You're here:

LFPV Decoded Metar

VILLACOUBLAY in FRANCE
Report Time2018-07-18 16:00:00
UTC Time2018-07-18 16:29:45
Flight Rules vfr VFR
Wind060° at 04 kt
W.Decomp.*RWY 09: 3.5 kt HW 1.9 kt LCW
W.Rank060° ranks 26
Current wind is below 060° avg. (6.5)
Visibility9999 m
Phenomena:N/A
Clouds:N/A
Expected CloudBase > 6,800 ft AGL from Temp-Dew spread
CeilingNone
Temp27°C (ISA +13)
Dew Point10°C (34% RH)
Heat Index26.6°C
AAT25.5°C
QNH1017 hPa
Density Alt2,139 ft
Elevation587 ft
Report Wrong Elevation
Raw Report
LFPV 181600Z AUTO 06004KT 360V150 CAVOK 27/10 Q1017 NOSIG=

Extra information for LFPV:More info

Metar Taf Metar & Taf Last 4 Metars F.Rules Stats Wind Profile Meteogram Temp Stats Airport Information Weather charts Add Link Nearby VenuesMetar ALERT Operation Metar Decoded Social comments